createdAt,value
2022-11-03T00:02:34.281Z,8.02
2022-11-03T00:07:34.159Z,7.99
2022-11-03T00:12:34.093Z,7.96
2022-11-03T00:17:34.034Z,8.00
2022-11-03T00:22:33.961Z,8.07
2022-11-03T00:27:33.904Z,8.11
2022-11-03T00:32:33.831Z,8.14
2022-11-03T00:37:33.776Z,8.14
2022-11-03T00:42:33.700Z,8.19
2022-11-03T00:47:33.642Z,8.23
2022-11-03T00:52:33.569Z,8.25
2022-11-03T00:57:33.512Z,8.25
2022-11-03T01:02:33.534Z,8.23
2022-11-03T01:07:33.378Z,8.22
2022-11-03T01:12:33.312Z,8.07
2022-11-03T01:17:33.249Z,8.05
2022-11-03T01:22:33.175Z,8.05
2022-11-03T01:27:33.117Z,8.05
2022-11-03T01:32:33.046Z,8.04
2022-11-03T01:37:32.986Z,8.00
2022-11-03T01:42:32.915Z,7.99
2022-11-03T01:47:32.856Z,7.90
2022-11-03T01:52:32.783Z,7.86
2022-11-03T01:57:32.725Z,7.94
2022-11-03T02:02:32.766Z,7.97
2022-11-03T02:07:32.597Z,7.94
2022-11-03T02:12:32.524Z,7.97
2022-11-03T02:17:32.465Z,8.00
2022-11-03T02:22:32.389Z,7.99
2022-11-03T02:27:32.340Z,8.02
2022-11-03T02:32:32.262Z,8.04
2022-11-03T02:37:32.200Z,8.07
2022-11-03T02:42:32.125Z,8.05
2022-11-03T02:47:32.068Z,7.99
2022-11-03T02:52:31.996Z,7.94
2022-11-03T02:57:31.937Z,7.93
2022-11-03T03:02:31.952Z,7.92
2022-11-03T03:07:31.810Z,7.86
2022-11-03T03:12:31.732Z,7.84
2022-11-03T03:17:31.675Z,7.81
2022-11-03T03:22:31.600Z,7.76
2022-11-03T03:27:31.542Z,7.74
2022-11-03T03:32:31.469Z,7.69
2022-11-03T03:37:31.419Z,7.65
2022-11-03T03:42:31.337Z,7.66
2022-11-03T03:47:31.279Z,7.65
2022-11-03T03:52:31.210Z,7.61
2022-11-03T03:57:31.147Z,7.60
2022-11-03T04:02:31.127Z,7.58
2022-11-03T04:07:31.018Z,7.58
2022-11-03T04:12:30.946Z,7.57
2022-11-03T04:17:30.886Z,7.56
2022-11-03T04:22:30.812Z,7.50
2022-11-03T04:27:30.763Z,7.47
2022-11-03T04:32:30.685Z,7.42
2022-11-03T04:37:30.623Z,7.38
2022-11-03T04:42:30.552Z,7.36
2022-11-03T04:47:30.493Z,7.28
2022-11-03T04:52:30.433Z,7.23
2022-11-03T04:57:30.366Z,7.13
2022-11-03T05:02:30.303Z,7.06
2022-11-03T05:07:30.231Z,7.02
2022-11-03T05:12:30.170Z,6.99
2022-11-03T05:17:30.103Z,6.88
2022-11-03T05:22:30.039Z,6.80
2022-11-03T05:27:29.972Z,6.68
2022-11-03T05:32:29.910Z,6.61
2022-11-03T05:37:29.844Z,6.55
2022-11-03T05:42:29.778Z,6.62
2022-11-03T05:47:29.709Z,6.77
2022-11-03T05:52:29.647Z,6.86
2022-11-03T05:57:29.578Z,6.97
2022-11-03T06:02:29.586Z,7.07
2022-11-03T06:07:29.446Z,7.15
2022-11-03T06:12:29.372Z,7.23
2022-11-03T06:17:29.313Z,7.29
2022-11-03T06:22:29.248Z,7.28
2022-11-03T06:27:29.183Z,7.29
2022-11-03T06:32:29.106Z,7.43
2022-11-03T06:37:29.051Z,7.93
2022-11-03T06:42:31.944Z,8.37
2022-11-03T06:47:28.916Z,8.91
2022-11-03T06:52:28.855Z,9.39
2022-11-03T06:57:28.786Z,9.67
2022-11-03T07:02:28.869Z,9.89
2022-11-03T07:07:28.717Z,9.87
2022-11-03T07:12:28.593Z,10.22
2022-11-03T07:17:28.527Z,11.01
2022-11-03T07:22:28.461Z,11.29
2022-11-03T07:27:28.399Z,11.52
2022-11-03T07:32:28.322Z,11.59
2022-11-03T07:37:28.300Z,12.59
2022-11-03T07:42:28.191Z,12.44
2022-11-03T07:47:28.134Z,13.30
2022-11-03T07:52:28.061Z,13.23
2022-11-03T07:57:28.000Z,13.37
2022-11-03T08:02:28.004Z,13.98
2022-11-03T08:07:27.869Z,14.70
2022-11-03T08:12:27.797Z,14.70
2022-11-03T08:17:27.739Z,13.94
2022-11-03T08:22:27.669Z,13.40
2022-11-03T08:27:28.056Z,13.08
2022-11-03T08:32:27.534Z,12.78
2022-11-03T08:37:27.476Z,12.56
2022-11-03T08:42:27.403Z,12.28
2022-11-03T08:47:27.343Z,12.26
2022-11-03T08:52:27.271Z,12.38
2022-11-03T08:57:27.226Z,12.36
2022-11-03T09:02:27.197Z,12.44
2022-11-03T09:12:28.038Z,13.58
2022-11-03T09:17:26.965Z,14.43
2022-11-03T09:22:26.885Z,14.63
2022-11-03T09:27:26.832Z,14.54
2022-11-03T09:32:26.749Z,14.78
2022-11-03T09:37:26.693Z,15.27
2022-11-03T09:42:26.622Z,15.51
2022-11-03T09:47:26.565Z,15.26
2022-11-03T09:52:26.490Z,15.59
2022-11-03T09:57:26.429Z,15.83
2022-11-03T10:02:26.468Z,15.88
2022-11-03T10:07:26.295Z,16.10
2022-11-03T10:12:26.241Z,15.64
2022-11-03T10:17:26.161Z,15.03
2022-11-03T10:22:26.090Z,14.66
2022-11-03T10:27:26.029Z,14.44
2022-11-03T10:32:25.955Z,14.29
2022-11-03T10:37:25.902Z,14.55
2022-11-03T10:42:30.469Z,14.77
2022-11-03T10:47:25.767Z,15.05
2022-11-03T10:52:25.749Z,15.24
2022-11-03T10:57:25.782Z,15.82
2022-11-03T11:02:25.682Z,16.34
2022-11-03T11:07:25.503Z,16.48
2022-11-03T11:12:25.450Z,16.77
2022-11-03T11:17:25.366Z,17.22
2022-11-03T11:22:25.291Z,17.19
2022-11-03T11:27:25.233Z,17.42
2022-11-03T11:32:25.159Z,16.94
2022-11-03T11:37:25.101Z,17.05
2022-11-03T11:47:24.964Z,16.91
2022-11-03T11:52:24.889Z,16.60
2022-11-03T11:57:24.831Z,16.32
2022-11-03T12:02:24.755Z,15.97
2022-11-03T12:07:24.695Z,15.43
2022-11-03T12:12:24.635Z,15.28
2022-11-03T12:17:24.561Z,15.36
2022-11-03T12:22:24.529Z,15.39
